SBI5723 UNNT-ZBAD
Flight info
| Callsign | SBI5723 |
|---|---|
| Flight time | N/A |
| Altitude | 35000 |
| Route | UNNT/25 OGATI A308 LEKOS P982 DARNO/K0828S1065 Y746 NIXAL G343 TMR W65 TUSLA W64 ELAPU |
| Aircraft | A321/M-SDFGJ1IYRW/LB1 |
Departure
| Time | N/A |
|---|---|
| Airport | Novosibirsk Tolmachevo Airport (UNNT) |
Arrival
| Time | 2026-05-01 09:55 |
|---|---|
| Airport | Beijing Daxing International Airport (ZBAD) |
| Time | Latitude | Longitude | Altitude | Speed | Heading |
|---|---|---|---|---|---|
| 2026-05-01 07:23 | 51.08700 | 96.59555 | 35183 ft | 468 kts | 117° |
| 2026-05-01 07:24 | 51.03310 | 96.72497 | 35185 ft | 468 kts | 117° |
| 2026-05-01 07:24 | 50.99705 | 96.81097 | 35187 ft | 468 kts | 117° |
| 2026-05-01 07:25 | 50.96098 | 96.89681 | 35190 ft | 467 kts | 117° |
| 2026-05-01 07:25 | 50.92489 | 96.98254 | 35184 ft | 467 kts | 117° |
| 2026-05-01 07:26 | 50.88899 | 97.06751 | 35181 ft | 467 kts | 117° |
| 2026-05-01 07:26 | 50.85273 | 97.15286 | 35179 ft | 466 kts | 117° |
| 2026-05-01 07:27 | 50.81653 | 97.23798 | 35181 ft | 466 kts | 117° |
| 2026-05-01 07:27 | 50.78026 | 97.32299 | 35179 ft | 466 kts | 118° |
| 2026-05-01 07:28 | 50.74399 | 97.40770 | 35181 ft | 466 kts | 118° |
| 2026-05-01 07:28 | 50.70758 | 97.49240 | 35178 ft | 465 kts | 118° |
| 2026-05-01 07:29 | 50.67120 | 97.57663 | 35177 ft | 465 kts | 118° |
| 2026-05-01 07:29 | 50.63475 | 97.66072 | 35179 ft | 465 kts | 118° |
| 2026-05-01 07:30 | 50.59843 | 97.74430 | 35180 ft | 465 kts | 118° |
| 2026-05-01 07:30 | 50.56190 | 97.82846 | 35180 ft | 465 kts | 118° |
| 2026-05-01 07:31 | 50.52525 | 97.91244 | 35192 ft | 465 kts | 118° |
| 2026-05-01 07:32 | 50.43353 | 98.12107 | 35193 ft | 465 kts | 118° |
| 2026-05-01 07:33 | 50.37821 | 98.24621 | 35197 ft | 465 kts | 118° |
| 2026-05-01 07:33 | 50.32279 | 98.37093 | 35193 ft | 465 kts | 118° |
| 2026-05-01 07:34 | 50.26727 | 98.49521 | 35277 ft | 464 kts | 119° |
| 2026-05-01 07:35 | 50.23017 | 98.57779 | 35265 ft | 464 kts | 119° |
| 2026-05-01 07:35 | 50.19324 | 98.65962 | 35269 ft | 464 kts | 119° |
| 2026-05-01 07:36 | 50.15606 | 98.74185 | 35258 ft | 463 kts | 119° |
| 2026-05-01 07:36 | 50.11896 | 98.82376 | 35259 ft | 463 kts | 119° |
| 2026-05-01 07:37 | 50.06308 | 98.94638 | 35263 ft | 463 kts | 119° |
| 2026-05-01 07:37 | 50.02577 | 99.02801 | 35263 ft | 463 kts | 119° |
| 2026-05-01 07:38 | 49.98844 | 99.10954 | 35268 ft | 463 kts | 119° |
| 2026-05-01 07:39 | 49.93254 | 99.23112 | 35271 ft | 463 kts | 120° |
| 2026-05-01 07:39 | 49.87621 | 99.35301 | 35271 ft | 462 kts | 120° |
| 2026-05-01 07:40 | 49.83860 | 99.43399 | 35272 ft | 462 kts | 120° |
| 2026-05-01 07:40 | 49.80111 | 99.51431 | 35275 ft | 462 kts | 120° |
| 2026-05-01 07:41 | 49.76344 | 99.59496 | 35274 ft | 462 kts | 120° |
| 2026-05-01 07:42 | 49.70685 | 99.71573 | 35276 ft | 462 kts | 120° |
| 2026-05-01 07:42 | 49.67544 | 99.78251 | 35277 ft | 462 kts | 120° |
| 2026-05-01 07:43 | 49.63153 | 99.87556 | 35280 ft | 461 kts | 120° |
| 2026-05-01 07:43 | 49.57476 | 99.99537 | 35280 ft | 461 kts | 120° |
| 2026-05-01 07:44 | 49.50527 | 100.14135 | 35287 ft | 461 kts | 121° |
| 2026-05-01 07:45 | 49.46727 | 100.22090 | 35286 ft | 461 kts | 121° |
| 2026-05-01 07:45 | 49.42927 | 100.30029 | 35283 ft | 461 kts | 121° |
| 2026-05-01 07:46 | 49.39128 | 100.37941 | 35281 ft | 460 kts | 121° |
| 2026-05-01 07:47 | 49.33404 | 100.49776 | 35282 ft | 460 kts | 121° |
| 2026-05-01 07:47 | 49.29583 | 100.57648 | 35278 ft | 460 kts | 121° |
| 2026-05-01 07:48 | 49.23877 | 100.69406 | 35282 ft | 460 kts | 121° |
| 2026-05-01 07:48 | 49.20046 | 100.77256 | 35277 ft | 461 kts | 122° |
| 2026-05-01 07:49 | 49.14278 | 100.89012 | 35280 ft | 461 kts | 122° |
| 2026-05-01 07:50 | 49.10440 | 100.96840 | 35280 ft | 461 kts | 122° |
| 2026-05-01 07:50 | 49.04648 | 101.08570 | 35276 ft | 462 kts | 123° |
| 2026-05-01 07:51 | 49.00801 | 101.16336 | 35278 ft | 462 kts | 123° |
| 2026-05-01 07:52 | 48.94980 | 101.28051 | 35282 ft | 463 kts | 123° |
| 2026-05-01 07:52 | 48.91084 | 101.35857 | 35268 ft | 463 kts | 123° |
| 2026-05-01 07:53 | 48.85225 | 101.47553 | 35269 ft | 464 kts | 124° |
| 2026-05-01 07:53 | 48.81313 | 101.55345 | 35267 ft | 465 kts | 124° |
| 2026-05-01 07:55 | 48.71479 | 101.74816 | 35264 ft | 466 kts | 124° |
| 2026-05-01 07:56 | 48.61622 | 101.94204 | 35266 ft | 467 kts | 125° |
| 2026-05-01 07:57 | 48.55662 | 102.05834 | 35260 ft | 467 kts | 125° |
| 2026-05-01 07:58 | 48.47687 | 102.21334 | 35260 ft | 468 kts | 126° |
| 2026-05-01 07:59 | 48.39679 | 102.36813 | 35252 ft | 468 kts | 126° |
| 2026-05-01 08:00 | 48.27634 | 102.59924 | 35245 ft | 469 kts | 127° |
| 2026-05-01 08:01 | 48.19557 | 102.75294 | 35243 ft | 469 kts | 127° |
| 2026-05-01 08:02 | 48.13482 | 102.86807 | 35238 ft | 469 kts | 128° |
| 2026-05-01 08:03 | 48.07407 | 102.98322 | 35236 ft | 470 kts | 128° |
| 2026-05-01 08:03 | 48.01294 | 103.09785 | 35230 ft | 470 kts | 128° |
| 2026-05-01 08:04 | 47.93149 | 103.25003 | 35234 ft | 471 kts | 129° |
| 2026-05-01 08:05 | 47.87016 | 103.36455 | 35231 ft | 471 kts | 129° |
| 2026-05-01 08:06 | 47.80863 | 103.47865 | 35228 ft | 471 kts | 129° |
| 2026-05-01 08:07 | 47.72647 | 103.62996 | 35232 ft | 472 kts | 129° |
| 2026-05-01 08:08 | 47.66445 | 103.74360 | 35238 ft | 472 kts | 130° |
| 2026-05-01 08:09 | 47.58188 | 103.89462 | 35239 ft | 471 kts | 130° |
| 2026-05-01 08:09 | 47.54045 | 103.96985 | 35239 ft | 471 kts | 130° |
| 2026-05-01 08:10 | 47.45749 | 104.11983 | 35238 ft | 470 kts | 130° |
| 2026-05-01 08:11 | 47.37482 | 104.26896 | 35238 ft | 469 kts | 130° |
| 2026-05-01 08:12 | 47.31266 | 104.38056 | 35242 ft | 469 kts | 130° |
| 2026-05-01 08:13 | 47.25031 | 104.49169 | 35243 ft | 469 kts | 131° |
| 2026-05-01 08:13 | 47.18824 | 104.60228 | 35239 ft | 469 kts | 131° |
| 2026-05-01 08:14 | 47.14659 | 104.67604 | 35241 ft | 469 kts | 131° |
| 2026-05-01 08:14 | 47.10489 | 104.74961 | 35236 ft | 468 kts | 131° |
| 2026-05-01 08:15 | 47.04236 | 104.85989 | 35232 ft | 468 kts | 131° |
| 2026-05-01 08:16 | 47.00061 | 104.93302 | 35233 ft | 468 kts | 131° |
| 2026-05-01 08:16 | 46.95882 | 105.00624 | 35227 ft | 468 kts | 132° |
| 2026-05-01 08:17 | 46.91703 | 105.07918 | 35225 ft | 468 kts | 132° |
| 2026-05-01 08:17 | 46.87513 | 105.15212 | 35217 ft | 468 kts | 132° |
| 2026-05-01 08:18 | 46.83347 | 105.22449 | 35216 ft | 469 kts | 132° |
| 2026-05-01 08:19 | 46.74918 | 105.37028 | 35209 ft | 470 kts | 133° |
| 2026-05-01 08:19 | 46.70697 | 105.44310 | 35204 ft | 470 kts | 133° |
| 2026-05-01 08:20 | 46.66472 | 105.51575 | 35201 ft | 470 kts | 133° |
| 2026-05-01 08:20 | 46.62235 | 105.58831 | 35194 ft | 471 kts | 134° |
| 2026-05-01 08:21 | 46.57984 | 105.66087 | 35191 ft | 471 kts | 134° |
| 2026-05-01 08:21 | 46.53733 | 105.73344 | 35183 ft | 472 kts | 134° |
| 2026-05-01 08:22 | 46.49466 | 105.80597 | 35179 ft | 473 kts | 134° |
| 2026-05-01 08:22 | 46.45186 | 105.87841 | 35175 ft | 473 kts | 134° |
| 2026-05-01 08:23 | 46.40899 | 105.95087 | 35169 ft | 474 kts | 134° |
| 2026-05-01 08:23 | 46.36629 | 106.02299 | 35168 ft | 474 kts | 135° |
| 2026-05-01 08:24 | 46.32321 | 106.09537 | 35162 ft | 475 kts | 135° |
| 2026-05-01 08:24 | 46.28000 | 106.16792 | 35158 ft | 476 kts | 135° |
| 2026-05-01 08:25 | 46.23675 | 106.24042 | 35162 ft | 477 kts | 135° |
| 2026-05-01 08:25 | 46.19328 | 106.31298 | 35160 ft | 478 kts | 135° |
| 2026-05-01 08:26 | 46.14974 | 106.38535 | 35154 ft | 478 kts | 136° |
| 2026-05-01 08:26 | 46.10607 | 106.45786 | 35154 ft | 478 kts | 136° |
| 2026-05-01 08:27 | 46.06243 | 106.53018 | 35161 ft | 479 kts | 136° |
| 2026-05-01 08:27 | 46.01892 | 106.60193 | 35154 ft | 479 kts | 136° |
| 2026-05-01 08:28 | 45.97498 | 106.67411 | 35150 ft | 480 kts | 136° |
| 2026-05-01 08:28 | 45.93098 | 106.74642 | 35146 ft | 480 kts | 136° |
| 2026-05-01 08:29 | 45.88703 | 106.81863 | 35150 ft | 480 kts | 136° |
| 2026-05-01 08:29 | 45.84287 | 106.89063 | 35142 ft | 481 kts | 137° |
| 2026-05-01 08:30 | 45.79863 | 106.96267 | 35137 ft | 481 kts | 137° |
| 2026-05-01 08:30 | 45.75445 | 107.03455 | 35135 ft | 481 kts | 137° |
| 2026-05-01 08:31 | 45.71006 | 107.10665 | 35132 ft | 482 kts | 137° |
| 2026-05-01 08:31 | 45.66598 | 107.17809 | 35131 ft | 482 kts | 137° |
| 2026-05-01 08:32 | 45.62154 | 107.24992 | 35127 ft | 482 kts | 137° |
| 2026-05-01 08:32 | 45.57702 | 107.32149 | 35124 ft | 482 kts | 137° |
| 2026-05-01 08:33 | 45.53232 | 107.39305 | 35117 ft | 482 kts | 137° |
| 2026-05-01 08:33 | 45.48771 | 107.46454 | 35115 ft | 483 kts | 138° |
| 2026-05-01 08:34 | 45.45054 | 107.52402 | 35112 ft | 483 kts | 138° |
| 2026-05-01 08:34 | 45.40576 | 107.59535 | 35110 ft | 483 kts | 138° |
| 2026-05-01 08:35 | 45.36079 | 107.66670 | 35113 ft | 484 kts | 139° |
| 2026-05-01 08:35 | 45.31592 | 107.73789 | 35120 ft | 484 kts | 139° |
| 2026-05-01 08:36 | 45.27099 | 107.80895 | 35119 ft | 483 kts | 139° |
| 2026-05-01 08:36 | 45.22602 | 107.87988 | 35115 ft | 483 kts | 139° |
| 2026-05-01 08:37 | 45.18100 | 107.95064 | 35119 ft | 483 kts | 139° |
| 2026-05-01 08:37 | 45.13631 | 108.02078 | 35121 ft | 483 kts | 139° |
| 2026-05-01 08:38 | 45.09125 | 108.09136 | 35118 ft | 483 kts | 139° |
| 2026-05-01 08:38 | 45.04618 | 108.16182 | 35120 ft | 483 kts | 140° |
| 2026-05-01 08:39 | 45.00104 | 108.23224 | 35120 ft | 483 kts | 140° |
| 2026-05-01 08:39 | 44.95570 | 108.30253 | 35117 ft | 483 kts | 140° |
| 2026-05-01 08:40 | 44.88756 | 108.40794 | 35109 ft | 484 kts | 140° |
| 2026-05-01 08:40 | 44.84247 | 108.47758 | 35114 ft | 484 kts | 140° |
| 2026-05-01 08:41 | 44.79698 | 108.54763 | 35109 ft | 484 kts | 140° |
| 2026-05-01 08:41 | 44.75139 | 108.61754 | 35102 ft | 485 kts | 140° |
| 2026-05-01 08:42 | 44.70565 | 108.68750 | 35102 ft | 486 kts | 140° |
| 2026-05-01 08:42 | 44.65988 | 108.75744 | 35095 ft | 486 kts | 141° |
| 2026-05-01 08:43 | 44.61396 | 108.82735 | 35092 ft | 487 kts | 141° |
| 2026-05-01 08:43 | 44.56791 | 108.89719 | 35094 ft | 488 kts | 141° |
| 2026-05-01 08:44 | 44.52214 | 108.96658 | 35101 ft | 488 kts | 141° |
| 2026-05-01 08:44 | 44.47599 | 109.03651 | 35095 ft | 489 kts | 141° |
| 2026-05-01 08:45 | 44.42979 | 109.10631 | 35086 ft | 489 kts | 141° |
| 2026-05-01 08:45 | 44.38342 | 109.17603 | 35082 ft | 489 kts | 141° |
| 2026-05-01 08:46 | 44.33695 | 109.24561 | 35078 ft | 490 kts | 141° |
| 2026-05-01 08:46 | 44.29034 | 109.31533 | 35075 ft | 491 kts | 141° |
| 2026-05-01 08:47 | 44.24375 | 109.38500 | 35080 ft | 492 kts | 141° |
| 2026-05-01 08:47 | 44.19701 | 109.45469 | 35075 ft | 492 kts | 141° |
| 2026-05-01 08:48 | 44.15004 | 109.52449 | 35076 ft | 493 kts | 141° |
| 2026-05-01 08:48 | 44.10323 | 109.59382 | 35078 ft | 494 kts | 141° |
| 2026-05-01 08:49 | 44.05609 | 109.66358 | 35073 ft | 495 kts | 141° |
| 2026-05-01 08:49 | 44.00879 | 109.73327 | 35075 ft | 495 kts | 141° |
| 2026-05-01 08:50 | 43.96180 | 109.80244 | 35072 ft | 496 kts | 141° |
| 2026-05-01 08:50 | 43.91412 | 109.87244 | 35071 ft | 496 kts | 141° |
| 2026-05-01 08:51 | 43.86690 | 109.94150 | 35071 ft | 496 kts | 141° |
| 2026-05-01 08:51 | 43.81929 | 110.01089 | 35075 ft | 497 kts | 141° |
| 2026-05-01 08:52 | 43.77166 | 110.08025 | 35072 ft | 497 kts | 141° |
| 2026-05-01 08:52 | 43.72398 | 110.14958 | 35068 ft | 498 kts | 141° |
| 2026-05-01 08:53 | 43.67621 | 110.21889 | 35056 ft | 498 kts | 141° |
| 2026-05-01 08:53 | 43.62835 | 110.28817 | 35058 ft | 499 kts | 141° |
| 2026-05-01 08:54 | 43.58034 | 110.35739 | 35050 ft | 499 kts | 141° |
| 2026-05-01 08:54 | 43.53222 | 110.42655 | 35056 ft | 500 kts | 141° |
| 2026-05-01 08:55 | 43.48432 | 110.49533 | 35048 ft | 501 kts | 141° |
| 2026-05-01 08:55 | 43.43602 | 110.56450 | 35057 ft | 501 kts | 141° |
| 2026-05-01 08:56 | 43.38758 | 110.63372 | 35044 ft | 501 kts | 141° |
| 2026-05-01 08:56 | 43.33904 | 110.70278 | 35052 ft | 502 kts | 141° |
| 2026-05-01 08:57 | 43.29048 | 110.77174 | 35048 ft | 502 kts | 141° |
| 2026-05-01 08:57 | 43.24189 | 110.84053 | 35044 ft | 502 kts | 141° |
| 2026-05-01 08:58 | 43.19503 | 110.91131 | 35046 ft | 508 kts | 135° |
| 2026-05-01 08:58 | 43.15064 | 110.98683 | 35042 ft | 508 kts | 135° |
| 2026-05-01 08:59 | 43.10614 | 111.06223 | 35040 ft | 508 kts | 135° |
| 2026-05-01 08:59 | 43.06163 | 111.13734 | 35041 ft | 508 kts | 136° |
| 2026-05-01 09:00 | 43.01704 | 111.21228 | 35041 ft | 508 kts | 136° |
| 2026-05-01 09:00 | 42.97243 | 111.28714 | 35039 ft | 508 kts | 136° |
| 2026-05-01 09:01 | 42.92780 | 111.36182 | 35038 ft | 507 kts | 136° |
| 2026-05-01 09:01 | 42.88315 | 111.43631 | 35038 ft | 507 kts | 136° |
| 2026-05-01 09:02 | 42.83878 | 111.51014 | 35038 ft | 507 kts | 136° |
| 2026-05-01 09:02 | 42.79407 | 111.58450 | 35038 ft | 507 kts | 136° |
| 2026-05-01 09:03 | 42.74933 | 111.65879 | 35029 ft | 507 kts | 136° |
| 2026-05-01 09:03 | 42.70446 | 111.73291 | 35027 ft | 507 kts | 136° |
| 2026-05-01 09:04 | 42.65954 | 111.80689 | 35027 ft | 507 kts | 136° |
| 2026-05-01 09:04 | 42.61455 | 111.88081 | 35023 ft | 508 kts | 136° |
| 2026-05-01 09:05 | 42.56974 | 111.95489 | 35021 ft | 508 kts | 136° |
| 2026-05-01 09:05 | 42.52548 | 112.02977 | 35058 ft | 509 kts | 135° |
| 2026-05-01 09:06 | 42.48130 | 112.10454 | 35026 ft | 508 kts | 135° |
| 2026-05-01 09:06 | 42.43719 | 112.17839 | 35020 ft | 508 kts | 136° |
| 2026-05-01 09:07 | 42.39257 | 112.25250 | 35016 ft | 508 kts | 136° |
| 2026-05-01 09:07 | 42.34796 | 112.32658 | 35008 ft | 508 kts | 136° |
| 2026-05-01 09:08 | 42.30330 | 112.40076 | 35006 ft | 508 kts | 136° |
| 2026-05-01 09:08 | 42.25863 | 112.47473 | 35000 ft | 508 kts | 136° |
| 2026-05-01 09:09 | 42.21386 | 112.54858 | 34999 ft | 508 kts | 136° |
| 2026-05-01 09:09 | 42.16900 | 112.62230 | 34996 ft | 508 kts | 136° |
| 2026-05-01 09:10 | 42.12416 | 112.69603 | 34991 ft | 509 kts | 136° |
| 2026-05-01 09:10 | 42.07927 | 112.76973 | 34983 ft | 509 kts | 136° |
| 2026-05-01 09:11 | 42.03459 | 112.84280 | 34977 ft | 509 kts | 136° |
| 2026-05-01 09:11 | 41.98951 | 112.91631 | 34981 ft | 509 kts | 136° |
| 2026-05-01 09:12 | 41.94438 | 112.98965 | 34977 ft | 509 kts | 136° |
| 2026-05-01 09:12 | 41.89858 | 113.06187 | 34949 ft | 503 kts | 143° |
| 2026-05-01 09:13 | 41.87225 | 113.09198 | 34949 ft | 492 kts | 153° |
| 2026-05-01 09:13 | 41.84342 | 113.11567 | 34947 ft | 480 kts | 163° |
| 2026-05-01 09:13 | 41.81305 | 113.13276 | 34944 ft | 468 kts | 172° |
| 2026-05-01 09:13 | 41.78194 | 113.14341 | 34942 ft | 456 kts | 181° |
| 2026-05-01 09:14 | 41.75084 | 113.14795 | 34931 ft | 445 kts | 189° |
| 2026-05-01 09:14 | 41.72021 | 113.14724 | 34922 ft | 438 kts | 193° |
| 2026-05-01 09:14 | 41.65919 | 113.14407 | 34922 ft | 439 kts | 192° |
| 2026-05-01 09:15 | 41.59811 | 113.14100 | 34911 ft | 440 kts | 192° |
| 2026-05-01 09:15 | 41.53736 | 113.13809 | 34909 ft | 440 kts | 192° |
| 2026-05-01 09:16 | 41.47620 | 113.13507 | 34908 ft | 440 kts | 192° |
| 2026-05-01 09:17 | 41.38439 | 113.13046 | 34907 ft | 440 kts | 193° |
| 2026-05-01 09:17 | 41.29246 | 113.12584 | 34910 ft | 441 kts | 192° |
| 2026-05-01 09:18 | 41.20054 | 113.12136 | 34907 ft | 441 kts | 192° |
| 2026-05-01 09:19 | 41.10892 | 113.11682 | 34904 ft | 441 kts | 192° |
| 2026-05-01 09:20 | 41.01673 | 113.11231 | 34905 ft | 442 kts | 192° |
| 2026-05-01 09:21 | 40.89383 | 113.10628 | 34904 ft | 442 kts | 193° |
| 2026-05-01 09:21 | 40.80152 | 113.10182 | 34905 ft | 442 kts | 193° |
| 2026-05-01 09:22 | 40.67838 | 113.09602 | 34905 ft | 442 kts | 193° |
| 2026-05-01 09:23 | 40.58601 | 113.09166 | 34903 ft | 442 kts | 193° |
| 2026-05-01 09:24 | 40.49409 | 113.08730 | 34902 ft | 443 kts | 193° |
| 2026-05-01 09:24 | 40.43230 | 113.08691 | 34897 ft | 457 kts | 181° |
| 2026-05-01 09:25 | 40.37295 | 113.12431 | 34892 ft | 504 kts | 142° |
| 2026-05-01 09:25 | 40.34232 | 113.19076 | 34886 ft | 526 kts | 107° |
| 2026-05-01 09:26 | 40.33618 | 113.23804 | 34884 ft | 529 kts | 97° |
| 2026-05-01 09:26 | 40.32688 | 113.38304 | 34882 ft | 534 kts | 95° |
| 2026-05-01 09:27 | 40.31796 | 113.52878 | 34886 ft | 536 kts | 96° |
| 2026-05-01 09:28 | 40.31063 | 113.62620 | 34886 ft | 537 kts | 96° |
| 2026-05-01 09:28 | 40.30316 | 113.72369 | 34890 ft | 538 kts | 96° |
| 2026-05-01 09:29 | 40.29250 | 113.86943 | 34898 ft | 538 kts | 96° |
| 2026-05-01 09:30 | 40.28140 | 114.01704 | 34902 ft | 550 kts | 96° |
| 2026-05-01 09:30 | 40.27115 | 114.16797 | 34899 ft | 556 kts | 94° |
| 2026-05-01 09:31 | 40.26918 | 114.21784 | 34901 ft | 545 kts | 92° |
| 2026-05-01 09:31 | 40.26765 | 114.26715 | 34899 ft | 541 kts | 92° |
| 2026-05-01 09:32 | 40.26265 | 114.41451 | 34597 ft | 539 kts | 93° |
| 2026-05-01 09:32 | 40.25817 | 114.51237 | 34124 ft | 538 kts | 94° |
| 2026-05-01 09:32 | 40.25580 | 114.56126 | 33893 ft | 538 kts | 94° |
| 2026-05-01 09:33 | 40.25342 | 114.61029 | 32923 ft | 543 kts | 94° |
| 2026-05-01 09:33 | 40.25106 | 114.65956 | 31727 ft | 551 kts | 94° |
| 2026-05-01 09:33 | 40.24640 | 114.75966 | 29982 ft | 549 kts | 93° |
| 2026-05-01 09:34 | 40.24409 | 114.80956 | 28871 ft | 546 kts | 94° |
| 2026-05-01 09:34 | 40.24182 | 114.85846 | 27366 ft | 533 kts | 94° |
| 2026-05-01 09:34 | 40.23734 | 114.95278 | 26473 ft | 504 kts | 94° |
| 2026-05-01 09:35 | 40.23515 | 114.99808 | 26032 ft | 494 kts | 94° |
| 2026-05-01 09:35 | 40.23077 | 115.08582 | 24469 ft | 473 kts | 94° |
| 2026-05-01 09:35 | 40.22861 | 115.12824 | 23695 ft | 462 kts | 94° |
| 2026-05-01 09:36 | 40.22651 | 115.16918 | 22848 ft | 452 kts | 94° |
| 2026-05-01 09:36 | 40.22441 | 115.20987 | 21892 ft | 445 kts | 94° |
| 2026-05-01 09:36 | 40.22281 | 115.24112 | 21285 ft | 443 kts | 94° |
| 2026-05-01 09:36 | 40.22224 | 115.25226 | 21107 ft | 441 kts | 94° |
| 2026-05-01 09:37 | 40.22020 | 115.29208 | 20458 ft | 436 kts | 94° |
| 2026-05-01 09:37 | 40.21620 | 115.37044 | 19147 ft | 426 kts | 94° |
| 2026-05-01 09:37 | 40.21421 | 115.40891 | 18533 ft | 422 kts | 95° |
| 2026-05-01 09:38 | 40.20630 | 115.48401 | 18019 ft | 418 kts | 108° |
| 2026-05-01 09:38 | 40.19563 | 115.51913 | 17752 ft | 414 kts | 119° |
| 2026-05-01 09:38 | 40.18082 | 115.55062 | 17378 ft | 400 kts | 129° |
| 2026-05-01 09:39 | 40.14729 | 115.60690 | 16470 ft | 385 kts | 130° |
| 2026-05-01 09:39 | 40.13094 | 115.63438 | 16004 ft | 380 kts | 130° |
| 2026-05-01 09:39 | 40.11487 | 115.66145 | 15558 ft | 375 kts | 130° |
| 2026-05-01 09:40 | 40.09898 | 115.68824 | 15094 ft | 371 kts | 130° |
| 2026-05-01 09:40 | 40.06755 | 115.74108 | 14173 ft | 365 kts | 129° |
| 2026-05-01 09:40 | 40.05200 | 115.76717 | 13702 ft | 363 kts | 129° |
| 2026-05-01 09:41 | 40.03656 | 115.79301 | 13201 ft | 360 kts | 129° |
| 2026-05-01 09:41 | 40.00609 | 115.84397 | 12251 ft | 353 kts | 129° |
| 2026-05-01 09:41 | 39.99108 | 115.86907 | 11778 ft | 350 kts | 129° |
| 2026-05-01 09:42 | 39.97614 | 115.89399 | 11312 ft | 347 kts | 129° |
| 2026-05-01 09:42 | 39.96128 | 115.91873 | 10948 ft | 345 kts | 129° |
| 2026-05-01 09:42 | 39.93257 | 115.96653 | 10575 ft | 321 kts | 129° |
| 2026-05-01 09:43 | 39.90589 | 116.01083 | 10159 ft | 304 kts | 130° |
| 2026-05-01 09:43 | 39.89286 | 116.03238 | 9933 ft | 302 kts | 130° |
| 2026-05-01 09:43 | 39.88007 | 116.05360 | 9812 ft | 301 kts | 130° |
| 2026-05-01 09:44 | 39.85409 | 116.09670 | 9313 ft | 301 kts | 130° |
| 2026-05-01 09:44 | 39.84132 | 116.11781 | 8851 ft | 300 kts | 130° |
| 2026-05-01 09:44 | 39.82855 | 116.13893 | 8450 ft | 297 kts | 130° |
| 2026-05-01 09:45 | 39.81592 | 116.15980 | 8133 ft | 291 kts | 130° |
| 2026-05-01 09:45 | 39.79192 | 116.19962 | 7829 ft | 267 kts | 130° |
| 2026-05-01 09:45 | 39.78301 | 116.21995 | 7550 ft | 255 kts | 111° |
| 2026-05-01 09:46 | 39.78001 | 116.24242 | 7026 ft | 253 kts | 90° |
| 2026-05-01 09:46 | 39.78186 | 116.26480 | 6657 ft | 241 kts | 85° |
| 2026-05-01 09:46 | 39.78388 | 116.28594 | 6246 ft | 233 kts | 85° |
| 2026-05-01 09:46 | 39.78577 | 116.30666 | 5862 ft | 226 kts | 85° |
| 2026-05-01 09:47 | 39.78754 | 116.32632 | 5751 ft | 211 kts | 86° |
| 2026-05-01 09:47 | 39.78902 | 116.34473 | 5616 ft | 199 kts | 91° |
| 2026-05-01 09:47 | 39.78647 | 116.36155 | 5488 ft | 183 kts | 118° |
| 2026-05-01 09:47 | 39.77956 | 116.37454 | 5367 ft | 170 kts | 142° |
| 2026-05-01 09:48 | 39.76999 | 116.38272 | 5217 ft | 162 kts | 162° |
| 2026-05-01 09:48 | 39.75917 | 116.38582 | 5048 ft | 158 kts | 177° |
| 2026-05-01 09:48 | 39.74834 | 116.38755 | 4846 ft | 156 kts | 176° |
| 2026-05-01 09:48 | 39.73758 | 116.38926 | 4656 ft | 156 kts | 176° |
| 2026-05-01 09:49 | 39.72680 | 116.39097 | 4452 ft | 156 kts | 176° |
| 2026-05-01 09:49 | 39.71596 | 116.39269 | 4229 ft | 159 kts | 176° |
| 2026-05-01 09:49 | 39.70501 | 116.39442 | 4027 ft | 160 kts | 176° |
| 2026-05-01 09:49 | 39.69397 | 116.39618 | 3817 ft | 160 kts | 176° |
| 2026-05-01 09:50 | 39.68295 | 116.39792 | 3605 ft | 160 kts | 175° |
| 2026-05-01 09:50 | 39.67195 | 116.39966 | 3397 ft | 159 kts | 175° |
| 2026-05-01 09:50 | 39.66095 | 116.40140 | 3190 ft | 159 kts | 175° |
| 2026-05-01 09:50 | 39.64995 | 116.40314 | 2988 ft | 160 kts | 175° |
| 2026-05-01 09:51 | 39.63897 | 116.40488 | 2778 ft | 159 kts | 174° |
| 2026-05-01 09:51 | 39.62814 | 116.40659 | 2567 ft | 156 kts | 173° |
| 2026-05-01 09:51 | 39.61758 | 116.40826 | 2367 ft | 149 kts | 172° |
| 2026-05-01 09:51 | 39.60725 | 116.40989 | 2168 ft | 150 kts | 171° |
| 2026-05-01 09:52 | 39.59689 | 116.41152 | 1975 ft | 150 kts | 171° |
| 2026-05-01 09:52 | 39.58685 | 116.41311 | 1779 ft | 142 kts | 172° |
| 2026-05-01 09:52 | 39.57716 | 116.41464 | 1594 ft | 140 kts | 171° |
| 2026-05-01 09:52 | 39.56758 | 116.41615 | 1410 ft | 138 kts | 169° |
| 2026-05-01 09:53 | 39.55809 | 116.41766 | 1244 ft | 137 kts | 170° |
| 2026-05-01 09:53 | 39.54869 | 116.41926 | 1091 ft | 137 kts | 169° |
| 2026-05-01 09:53 | 39.53911 | 116.42062 | 928 ft | 139 kts | 170° |
| 2026-05-01 09:53 | 39.52951 | 116.42191 | 737 ft | 139 kts | 169° |
| 2026-05-01 09:54 | 39.51999 | 116.42363 | 514 ft | 139 kts | 168° |
| 2026-05-01 09:54 | 39.51042 | 116.42522 | 303 ft | 139 kts | 172° |
| 2026-05-01 09:54 | 39.50082 | 116.42671 | 144 ft | 140 kts | 170° |
| 2026-05-01 09:54 | 39.49175 | 116.42819 | 99 ft | 108 kts | 174° |
| 2026-05-01 09:55 | 39.48720 | 116.42882 | 99 ft | 35 kts | 172° |
| 2026-05-01 09:55 | 39.48511 | 116.42896 | 100 ft | 22 kts | 185° |
| 2026-05-01 09:55 | 39.48401 | 116.42860 | 101 ft | 16 kts | 198° |
| 2026-05-01 09:55 | 39.48320 | 116.42816 | 97 ft | 11 kts | 217° |
| 2026-05-01 09:56 | 39.48314 | 116.42750 | 91 ft | 5 kts | 299° |
| 2026-05-01 09:56 | 39.48351 | 116.42728 | 90 ft | 6 kts | 350° |
| 2026-05-01 09:56 | 39.48390 | 116.42722 | 89 ft | 5 kts | 353° |
| 2026-05-01 09:56 | 39.48424 | 116.42717 | 90 ft | 4 kts | 354° |
| 2026-05-01 09:57 | 39.48463 | 116.42709 | 90 ft | 8 kts | 342° |
| 2026-05-01 09:57 | 39.48502 | 116.42655 | 90 ft | 9 kts | 307° |
| 2026-05-01 09:57 | 39.48530 | 116.42608 | 90 ft | 5 kts | 308° |
| 2026-05-01 09:57 | 39.48559 | 116.42585 | 90 ft | 5 kts | 341° |
| 2026-05-01 09:58 | 39.48599 | 116.42577 | 89 ft | 8 kts | 354° |
| 2026-05-01 09:58 | 39.48666 | 116.42565 | 89 ft | 13 kts | 350° |
| 2026-05-01 09:58 | 39.48784 | 116.42545 | 89 ft | 22 kts | 2° |
| 2026-05-01 09:58 | 39.48946 | 116.42521 | 87 ft | 23 kts | 352° |
| 2026-05-01 09:59 | 39.49027 | 116.42507 | 90 ft | 10 kts | 353° |
| 2026-05-01 09:59 | 39.49094 | 116.42497 | 86 ft | 9 kts | 353° |
| 2026-05-01 09:59 | 39.49153 | 116.42488 | 87 ft | 8 kts | 353° |
| 2026-05-01 09:59 | 39.49207 | 116.42478 | 89 ft | 7 kts | 352° |
| 2026-05-01 10:00 | 39.49256 | 116.42471 | 89 ft | 7 kts | 353° |
| 2026-05-01 10:00 | 39.49301 | 116.42464 | 86 ft | 7 kts | 353° |
| 2026-05-01 10:00 | 39.49328 | 116.42459 | 88 ft | 3 kts | 352° |
| 2026-05-01 10:00 | 39.49354 | 116.42452 | 88 ft | 5 kts | 343° |
| 2026-05-01 10:01 | 39.49388 | 116.42427 | 87 ft | 7 kts | 327° |
| 2026-05-01 10:01 | 39.49430 | 116.42392 | 90 ft | 7 kts | 326° |
| 2026-05-01 10:01 | 39.49468 | 116.42359 | 88 ft | 6 kts | 326° |
| 2026-05-01 10:01 | 39.49502 | 116.42329 | 90 ft | 6 kts | 326° |
| 2026-05-01 10:02 | 39.49535 | 116.42310 | 89 ft | 5 kts | 349° |
| 2026-05-01 10:02 | 39.49564 | 116.42306 | 89 ft | 4 kts | 353° |
| 2026-05-01 10:02 | 39.49591 | 116.42302 | 85 ft | 4 kts | 353° |
| 2026-05-01 10:02 | 39.49623 | 116.42297 | 88 ft | 5 kts | 353° |
| 2026-05-01 10:03 | 39.49667 | 116.42290 | 86 ft | 9 kts | 353° |
| 2026-05-01 10:03 | 39.49746 | 116.42278 | 88 ft | 14 kts | 353° |
| 2026-05-01 10:03 | 39.49862 | 116.42260 | 87 ft | 20 kts | 353° |
| 2026-05-01 10:03 | 39.49992 | 116.42240 | 89 ft | 13 kts | 353° |
| 2026-05-01 10:04 | 39.50076 | 116.42226 | 87 ft | 12 kts | 353° |
| 2026-05-01 10:04 | 39.50156 | 116.42214 | 89 ft | 11 kts | 353° |
| 2026-05-01 10:04 | 39.50231 | 116.42202 | 87 ft | 11 kts | 354° |
| 2026-05-01 10:04 | 39.50276 | 116.42187 | 88 ft | 6 kts | 324° |
| 2026-05-01 10:05 | 39.50288 | 116.42146 | 87 ft | 5 kts | 272° |
| 2026-05-01 10:05 | 39.50286 | 116.42107 | 89 ft | 4 kts | 264° |
| 2026-05-01 10:05 | 39.50282 | 116.42075 | 87 ft | 3 kts | 260° |
| 2026-05-01 10:05 | 39.50280 | 116.42049 | 87 ft | 3 kts | 263° |
| 2026-05-01 10:06 | 39.50276 | 116.42010 | 85 ft | 9 kts | 263° |
| 2026-05-01 10:06 | 39.50258 | 116.41833 | 86 ft | 32 kts | 262° |
| 2026-05-01 10:06 | 39.50239 | 116.41634 | 85 ft | 5 kts | 264° |
| 2026-05-01 10:06 | 39.50237 | 116.41609 | 85 ft | 0 kts | 264° |
| 2026-05-01 10:07 | 39.50237 | 116.41599 | 85 ft | 0 kts | 264° |
| 2026-05-01 10:07 | 39.50236 | 116.41594 | 85 ft | 4 kts | 264° |
| 2026-05-01 10:07 | 39.50231 | 116.41524 | 85 ft | 7 kts | 265° |
| 2026-05-01 10:07 | 39.50251 | 116.41479 | 87 ft | 5 kts | 337° |
| 2026-05-01 10:08 | 39.50343 | 116.41462 | 87 ft | 9 kts | 353° |
| 2026-05-01 10:08 | 39.50399 | 116.41453 | 87 ft | 8 kts | 353° |
| 2026-05-01 10:08 | 39.50450 | 116.41444 | 87 ft | 7 kts | 352° |
| 2026-05-01 10:09 | 39.50486 | 116.41433 | 87 ft | 4 kts | 334° |
| 2026-05-01 10:09 | 39.50499 | 116.41405 | 89 ft | 3 kts | 282° |
| 2026-05-01 10:09 | 39.50503 | 116.41375 | 87 ft | 4 kts | 281° |
| 2026-05-01 10:09 | 39.50508 | 116.41343 | 85 ft | 3 kts | 281° |
| 2026-05-01 10:10 | 39.50509 | 116.41337 | 85 ft | 0 kts | 281° |